createdAt,value
2023-05-21T00:00:59.421Z,951.2684
2023-05-21T00:02:01.917Z,951.2515
2023-05-21T00:03:04.229Z,951.2304
2023-05-21T00:04:05.619Z,951.2146
2023-05-21T00:05:07.439Z,951.1925
2023-05-21T00:06:09.955Z,951.1782
2023-05-21T00:07:11.607Z,951.1629
2023-05-21T00:08:12.652Z,951.1529
2023-05-21T00:09:14.287Z,951.1392
2023-05-21T00:10:16.082Z,951.1262
2023-05-21T00:11:16.977Z,951.1146
2023-05-21T00:12:18.145Z,951.1054
2023-05-21T00:13:20.105Z,951.0921
2023-05-21T00:14:21.445Z,951.0770
2023-05-21T00:15:22.048Z,951.0596
2023-05-21T00:16:23.129Z,951.0421
2023-05-21T00:17:24.377Z,951.0354
2023-05-21T00:19:25.399Z,951.0229
2023-05-21T00:20:26.930Z,951.0167
2023-05-21T00:21:28.873Z,951.0067
2023-05-21T00:23:30.980Z,950.9888
2023-05-21T00:24:33.206Z,950.9876
2023-05-21T00:25:34.461Z,950.9850
2023-05-21T00:26:35.573Z,950.9750
2023-05-21T00:28:39.440Z,950.9763
2023-05-21T00:31:40.290Z,950.9879
2023-05-21T00:32:41.291Z,950.9829
2023-05-21T00:33:43.972Z,950.9816
2023-05-21T00:34:44.143Z,950.9825
2023-05-21T00:35:45.897Z,950.9835
2023-05-21T00:36:47.090Z,950.9688
2023-05-21T00:37:48.274Z,950.9534
2023-05-21T00:38:51.017Z,950.9350
2023-05-21T00:39:51.919Z,950.9172
2023-05-21T00:40:52.943Z,950.9116
2023-05-21T00:41:54.764Z,950.9113
2023-05-21T00:42:56.114Z,950.9012
2023-05-21T00:43:58.210Z,950.8959
2023-05-21T00:44:59.841Z,950.8871
2023-05-21T00:46:00.743Z,950.8860
2023-05-21T00:47:02.529Z,950.8888
2023-05-21T00:48:03.853Z,950.8942
2023-05-21T00:49:05.032Z,950.8971
2023-05-21T00:50:06.965Z,950.9016
2023-05-21T00:51:09.430Z,950.9062
2023-05-21T00:52:10.460Z,950.9025
2023-05-21T00:53:11.505Z,950.8996
2023-05-21T00:54:13.298Z,950.8934
2023-05-21T00:55:15.251Z,950.8977
2023-05-21T00:56:16.292Z,950.9033
2023-05-21T00:57:16.924Z,950.9177
2023-05-21T00:58:19.154Z,950.9254
2023-05-21T00:59:20.367Z,950.9237
2023-05-21T01:00:21.697Z,950.9263
2023-05-21T01:01:23.832Z,950.9155
2023-05-21T01:02:25.744Z,950.9129
2023-05-21T01:03:27.292Z,950.9137
2023-05-21T01:04:29.204Z,950.9095
2023-05-21T01:05:30.847Z,950.9108
2023-05-21T01:06:32.522Z,950.9100
2023-05-21T01:07:33.512Z,950.9005
2023-05-21T01:08:35.009Z,950.8971
2023-05-21T01:09:37.425Z,950.8925
2023-05-21T01:18:46.235Z,950.8673
2023-05-21T01:19:46.611Z,950.8725
2023-05-21T01:23:48.022Z,950.8496
2023-05-21T01:24:49.630Z,950.8523
2023-05-21T01:28:52.778Z,950.8488
2023-05-21T01:29:53.668Z,950.8472
2023-05-21T01:30:55.868Z,950.8448
2023-05-21T01:31:58.077Z,950.8392
2023-05-21T01:32:59.345Z,950.8362
2023-05-21T01:34:01.706Z,950.8334
2023-05-21T01:37:05.221Z,950.8037
2023-05-21T01:38:07.109Z,950.8033
2023-05-21T01:40:08.093Z,950.7938
2023-05-21T01:41:09.994Z,950.7904
2023-05-21T01:42:10.877Z,950.7858
2023-05-21T01:43:11.984Z,950.7804
2023-05-21T01:44:13.743Z,950.7817
2023-05-21T01:45:15.652Z,950.7808
2023-05-21T01:46:16.689Z,950.7750
2023-05-21T01:47:17.700Z,950.7700
2023-05-21T01:48:18.689Z,950.7652
2023-05-21T01:49:20.570Z,950.7671
2023-05-21T01:54:24.285Z,950.7550
2023-05-21T01:55:25.485Z,950.7571
2023-05-21T01:56:27.347Z,950.7496
2023-05-21T01:57:28.310Z,950.7404
2023-05-21T01:58:30.542Z,950.7296
2023-05-21T01:59:31.769Z,950.7266
2023-05-21T02:00:33.465Z,950.7254
2023-05-21T02:01:36.019Z,950.7200
2023-05-21T02:02:36.712Z,950.7175
2023-05-21T02:03:36.789Z,950.7116
2023-05-21T02:04:39.297Z,950.7054
2023-05-21T02:05:39.585Z,950.7000
2023-05-21T02:06:40.592Z,950.6887
2023-05-21T02:07:42.501Z,950.6783
2023-05-21T02:08:43.301Z,950.6676
2023-05-21T02:15:51.270Z,950.6430
2023-05-21T02:16:53.394Z,950.6296
2023-05-21T02:17:55.966Z,950.6232
2023-05-21T02:20:58.235Z,950.6000
2023-05-21T02:21:59.405Z,950.5921
2023-05-21T02:23:00.334Z,950.5846
2023-05-21T02:24:02.406Z,950.5804
2023-05-21T02:25:06.979Z,950.5865
2023-05-21T02:27:04.672Z,950.5571
2023-05-21T02:28:06.845Z,950.5415
2023-05-21T02:29:08.143Z,950.5329
2023-05-21T02:31:11.473Z,950.5235
2023-05-21T02:34:14.275Z,950.5125
2023-05-21T02:35:15.462Z,950.5050
2023-05-21T02:36:16.436Z,950.5021
2023-05-21T02:37:18.886Z,950.5027
2023-05-21T02:38:20.496Z,950.5038
2023-05-21T02:39:21.982Z,950.5020
2023-05-21T02:40:22.356Z,950.5031
2023-05-21T02:41:23.480Z,950.5084
2023-05-21T02:42:25.124Z,950.5129
2023-05-21T02:43:26.112Z,950.5196
2023-05-21T02:44:28.288Z,950.5250
2023-05-21T02:45:29.597Z,950.5204
2023-05-21T02:46:30.745Z,950.5146
2023-05-21T02:47:32.678Z,950.5112
2023-05-21T02:48:33.519Z,950.4991
2023-05-21T02:49:35.538Z,950.4873
2023-05-21T02:57:43.679Z,950.4452
2023-05-21T02:58:45.712Z,950.4341
2023-05-21T02:59:47.287Z,950.4287
2023-05-21T03:00:48.357Z,950.4346
2023-05-21T03:01:50.760Z,950.4366
2023-05-21T03:02:50.943Z,950.4435
2023-05-21T03:03:52.610Z,950.4459
2023-05-21T03:04:54.350Z,950.4452
2023-05-21T03:05:56.187Z,950.4537
2023-05-21T03:06:56.931Z,950.4520
2023-05-21T03:07:58.352Z,950.4496
2023-05-21T03:09:00.577Z,950.4442
2023-05-21T03:10:01.606Z,950.4467
2023-05-21T03:11:03.177Z,950.4434
2023-05-21T03:12:04.711Z,950.4300
2023-05-21T03:13:08.195Z,950.4359
2023-05-21T03:14:07.856Z,950.4423
2023-05-21T03:17:40.370Z,950.4417
2023-05-21T03:18:40.549Z,950.4570
2023-05-21T03:19:41.828Z,950.4559
2023-05-21T03:20:42.794Z,950.4546
2023-05-21T03:21:44.053Z,950.4584
2023-05-21T03:23:46.688Z,950.4862
2023-05-21T03:24:48.001Z,950.4925
2023-05-21T03:25:49.525Z,950.5012
2023-05-21T03:26:50.586Z,950.5025
2023-05-21T03:27:51.549Z,950.5050
2023-05-21T03:28:53.070Z,950.5121
2023-05-21T03:29:55.020Z,950.5189
2023-05-21T03:30:56.447Z,950.5204
2023-05-21T03:31:57.735Z,950.5217
2023-05-21T03:32:59.202Z,950.5234
2023-05-21T03:34:00.671Z,950.5255
2023-05-21T03:35:01.869Z,950.5421
2023-05-21T03:36:03.487Z,950.5668
2023-05-21T03:37:04.498Z,950.5784
2023-05-21T03:38:05.650Z,950.5813
2023-05-21T03:39:06.953Z,950.5854
2023-05-21T03:40:08.336Z,950.5846
2023-05-21T03:41:10.435Z,950.5792
2023-05-21T03:42:10.474Z,950.5720
2023-05-21T03:43:11.554Z,950.5604
2023-05-21T03:44:12.222Z,950.5539
2023-05-21T03:45:12.922Z,950.5516
2023-05-21T03:46:13.866Z,950.5546
2023-05-21T03:47:14.110Z,950.5700
2023-05-21T03:48:15.315Z,950.5900
2023-05-21T03:49:16.955Z,950.6004
2023-05-21T03:50:17.964Z,950.6216
2023-05-21T03:51:18.511Z,950.6354
2023-05-21T03:52:20.766Z,950.6342
2023-05-21T03:53:21.391Z,950.6408
2023-05-21T03:54:22.595Z,950.6500
2023-05-21T03:55:23.741Z,950.6542
2023-05-21T03:56:25.184Z,950.6688
2023-05-21T03:57:26.264Z,950.6850
2023-05-21T03:58:27.878Z,950.7004
2023-05-21T03:59:30.194Z,950.7224
2023-05-21T04:01:30.469Z,950.7560
2023-05-21T04:02:32.028Z,950.7766
2023-05-21T04:10:41.227Z,950.7800
2023-05-21T04:11:42.133Z,950.7787
2023-05-21T04:12:43.700Z,950.7888
2023-05-21T04:13:45.412Z,950.7971
2023-05-21T04:15:47.113Z,950.8213
2023-05-21T04:16:49.725Z,950.8350
2023-05-21T04:22:56.654Z,950.8679
2023-05-21T04:23:56.730Z,950.8712
2023-05-21T04:25:57.010Z,950.8892
2023-05-21T04:26:58.506Z,950.8975
2023-05-21T04:28:00.055Z,950.9141
2023-05-21T04:29:02.475Z,950.9300
2023-05-21T04:30:04.025Z,950.9342
2023-05-21T04:31:06.209Z,950.9371
2023-05-21T04:32:06.241Z,950.9313
2023-05-21T04:33:08.472Z,950.9372
2023-05-21T04:34:10.422Z,950.9308
2023-05-21T04:36:10.621Z,950.9431
2023-05-21T04:37:12.337Z,950.9471
2023-05-21T04:38:14.598Z,950.9516
2023-05-21T04:39:15.247Z,950.9676
2023-05-21T04:40:17.079Z,950.9788
2023-05-21T04:41:19.118Z,950.9946
2023-05-21T04:42:20.332Z,951.0112
2023-05-21T04:43:23.114Z,951.0215
2023-05-21T04:44:25.268Z,951.0416
2023-05-21T04:50:29.835Z,951.0804
2023-05-21T04:51:31.179Z,951.0933
2023-05-21T04:52:32.958Z,951.1025
2023-05-21T04:53:34.955Z,951.1175
2023-05-21T04:54:36.156Z,951.1254
2023-05-21T04:55:38.429Z,951.1338
2023-05-21T04:58:40.093Z,951.1454
2023-05-21T04:59:40.980Z,951.1367
2023-05-21T05:00:41.853Z,951.1220
2023-05-21T05:01:42.915Z,951.0995
2023-05-21T05:02:44.806Z,951.0933
2023-05-21T05:03:46.462Z,951.0900
2023-05-21T05:04:48.095Z,951.1041
2023-05-21T05:05:49.253Z,951.1175
2023-05-21T05:06:49.486Z,951.1300
2023-05-21T05:07:49.492Z,951.1512
2023-05-21T05:08:51.020Z,951.1716
2023-05-21T05:09:53.252Z,951.1835
2023-05-21T05:10:54.247Z,951.1650
2023-05-21T05:11:56.750Z,951.1546
2023-05-21T05:12:58.922Z,951.1483
2023-05-21T05:14:00.222Z,951.1396
2023-05-21T05:15:02.659Z,951.1304
2023-05-21T05:25:15.206Z,951.2241
2023-05-21T05:26:16.692Z,951.2346
2023-05-21T05:27:19.070Z,951.2462
2023-05-21T05:29:20.718Z,951.2787
2023-05-21T05:30:21.670Z,951.2829
2023-05-21T05:31:22.735Z,951.2808
2023-05-21T05:32:24.474Z,951.2808
2023-05-21T05:33:26.096Z,951.2704
2023-05-21T05:34:28.112Z,951.2659
2023-05-21T05:35:29.080Z,951.2659
2023-05-21T05:36:29.546Z,951.2692
2023-05-21T05:37:31.940Z,951.2752
2023-05-21T05:38:32.927Z,951.2755
2023-05-21T05:39:33.925Z,951.2904
2023-05-21T05:40:35.657Z,951.2933
2023-05-21T05:41:36.803Z,951.2888
2023-05-21T05:42:37.718Z,951.2866
2023-05-21T05:43:38.699Z,951.2866
2023-05-21T05:44:40.774Z,951.2954
2023-05-21T05:49:45.000Z,951.3141
2023-05-21T05:50:45.958Z,951.3229
2023-05-21T05:51:46.747Z,951.3350
2023-05-21T05:52:48.290Z,951.3412
2023-05-21T05:54:50.087Z,951.3304
2023-05-21T05:55:51.604Z,951.2904
2023-05-21T05:56:53.209Z,951.2838
2023-05-21T05:57:54.142Z,951.2896
2023-05-21T05:58:55.043Z,951.2929
2023-05-21T05:59:56.666Z,951.2916
2023-05-21T06:00:57.584Z,951.3063
2023-05-21T06:01:58.103Z,951.3176
2023-05-21T06:02:59.161Z,951.3316
2023-05-21T06:04:00.413Z,951.3371
2023-05-21T06:05:01.959Z,951.3504
2023-05-21T06:06:04.004Z,951.3596
2023-05-21T06:14:10.232Z,951.4287
2023-05-21T06:15:15.931Z,951.4467
2023-05-21T06:18:13.771Z,951.4916
2023-05-21T06:19:14.924Z,951.4925
2023-05-21T06:20:17.152Z,951.4800
2023-05-21T06:21:17.277Z,951.4665
2023-05-21T06:22:18.398Z,951.4437
2023-05-21T06:23:19.812Z,951.4379
2023-05-21T06:24:21.056Z,951.4471
2023-05-21T06:25:21.608Z,951.4728
2023-05-21T06:26:23.056Z,951.4879
2023-05-21T06:27:25.918Z,951.5041
2023-05-21T06:28:27.225Z,951.5075
2023-05-21T06:29:28.605Z,951.5150
2023-05-21T06:30:30.716Z,951.5209
2023-05-21T06:31:32.470Z,951.5188
2023-05-21T06:32:35.253Z,951.4971
2023-05-21T06:41:44.128Z,951.5027
2023-05-21T06:42:45.468Z,951.5038
2023-05-21T06:43:47.034Z,951.4954
2023-05-21T06:44:49.172Z,951.4816
2023-05-21T06:45:49.219Z,951.4791
2023-05-21T06:47:51.475Z,951.4938
2023-05-21T06:48:51.891Z,951.5015
2023-05-21T06:50:52.485Z,951.5144
2023-05-21T06:51:55.384Z,951.5159
2023-05-21T06:53:57.657Z,951.4962
2023-05-21T06:54:59.866Z,951.4916
2023-05-21T06:56:00.476Z,951.4783
2023-05-21T06:57:00.907Z,951.4822
2023-05-21T06:58:02.746Z,951.4908
2023-05-21T06:59:05.016Z,951.5075
2023-05-21T07:00:05.037Z,951.5244
2023-05-21T07:02:08.145Z,951.5400
2023-05-21T07:03:09.903Z,951.5558
2023-05-21T07:04:10.664Z,951.5656
2023-05-21T07:05:12.740Z,951.5637
2023-05-21T07:06:12.878Z,951.5518
2023-05-21T07:07:14.619Z,951.5593
2023-05-21T07:08:17.100Z,951.5644
2023-05-21T07:09:17.882Z,951.5654
2023-05-21T07:12:22.100Z,951.5950
2023-05-21T07:13:22.654Z,951.6022
2023-05-21T07:19:31.088Z,951.5908
2023-05-21T07:25:38.469Z,951.6056
2023-05-21T07:26:39.685Z,951.5912
2023-05-21T07:27:40.467Z,951.5836
2023-05-21T07:28:41.253Z,951.5844
2023-05-21T07:29:44.172Z,951.5800
2023-05-21T07:30:44.430Z,951.5704
2023-05-21T07:31:45.676Z,951.5579
2023-05-21T07:32:46.999Z,951.5388
2023-05-21T07:33:48.759Z,951.5234
2023-05-21T07:34:49.646Z,951.5034
2023-05-21T07:36:51.030Z,951.4758
2023-05-21T07:39:52.865Z,951.4750
2023-05-21T07:40:54.526Z,951.4965
2023-05-21T07:41:56.604Z,951.5042
2023-05-21T07:47:02.446Z,951.4146
2023-05-21T07:48:04.637Z,951.4083
2023-05-21T07:50:06.418Z,951.4204
2023-05-21T07:51:06.954Z,951.4091
2023-05-21T07:53:08.782Z,951.4492
2023-05-21T07:54:09.474Z,951.4509
2023-05-21T07:56:09.804Z,951.4581
2023-05-21T07:57:10.557Z,951.4604
2023-05-21T07:58:11.308Z,951.4664
2023-05-21T07:59:13.896Z,951.4676
2023-05-21T08:00:13.818Z,951.4846
2023-05-21T08:05:17.698Z,951.5154
2023-05-21T08:06:17.780Z,951.5239
2023-05-21T08:07:19.911Z,951.5246
2023-05-21T08:08:20.600Z,951.5226
2023-05-21T08:09:20.699Z,951.5165
2023-05-21T08:10:20.877Z,951.5226
2023-05-21T08:11:22.625Z,951.5244
2023-05-21T08:12:23.383Z,951.5167
2023-05-21T08:14:24.431Z,951.5174
2023-05-21T08:15:25.467Z,951.5161
2023-05-21T08:16:26.680Z,951.5161
2023-05-21T08:17:29.315Z,951.5204
2023-05-21T08:18:29.719Z,951.5153
2023-05-21T08:19:30.599Z,951.5000
2023-05-21T08:20:33.184Z,951.4936
2023-05-21T08:21:33.581Z,951.4857
2023-05-21T08:22:34.161Z,951.4930
2023-05-21T08:23:35.153Z,951.4946
2023-05-21T08:24:35.366Z,951.5123
2023-05-21T08:25:36.586Z,951.5092
2023-05-21T08:26:37.421Z,951.4875
2023-05-21T08:28:39.313Z,951.4872
2023-05-21T08:29:41.453Z,951.5025
2023-05-21T08:30:42.041Z,951.4900
2023-05-21T08:32:45.228Z,951.4415
2023-05-21T08:33:46.316Z,951.4619
2023-05-21T08:41:50.154Z,951.4796
2023-05-21T08:42:51.935Z,951.4838
2023-05-21T08:43:54.901Z,951.4972
2023-05-21T08:44:53.684Z,951.4806
2023-05-21T08:45:56.029Z,951.4629
2023-05-21T08:46:56.511Z,951.4560
2023-05-21T08:47:59.189Z,951.4554
2023-05-21T08:49:00.157Z,951.4456
2023-05-21T08:50:01.970Z,951.4615
2023-05-21T08:51:02.785Z,951.4664
2023-05-21T08:52:03.807Z,951.4838
2023-05-21T08:53:12.721Z,951.4650
2023-05-21T08:55:07.229Z,951.4642
2023-05-21T09:01:19.800Z,951.4581
2023-05-21T09:02:19.671Z,951.4604
2023-05-21T09:03:21.915Z,951.4529
2023-05-21T09:04:23.513Z,951.4644
2023-05-21T09:05:23.749Z,951.4728
2023-05-21T09:06:25.997Z,951.4779
2023-05-21T09:07:26.982Z,951.4904
2023-05-21T09:08:28.198Z,951.4996
2023-05-21T09:09:29.548Z,951.5065
2023-05-21T09:10:30.983Z,951.5065
2023-05-21T09:11:31.477Z,951.5012
2023-05-21T09:12:33.610Z,951.5018
2023-05-21T09:13:39.266Z,951.5042
2023-05-21T09:21:42.911Z,951.4944
2023-05-21T09:22:44.157Z,951.5016
2023-05-21T09:24:46.076Z,951.4633
2023-05-21T09:25:47.369Z,951.4592
2023-05-21T09:26:47.701Z,951.4457
2023-05-21T09:27:49.970Z,951.4045
2023-05-21T09:28:51.719Z,951.3971
2023-05-21T09:29:53.359Z,951.3921
2023-05-21T09:30:59.976Z,951.4046
2023-05-21T09:38:04.122Z,951.3989
2023-05-21T09:39:06.252Z,951.3812
2023-05-21T09:40:07.625Z,951.3808
2023-05-21T09:41:09.638Z,951.3808
2023-05-21T09:42:11.909Z,951.3604
2023-05-21T09:43:13.072Z,951.3524
2023-05-21T09:44:15.650Z,951.3579
2023-05-21T09:45:17.614Z,951.3679
2023-05-21T09:47:19.543Z,951.3820
2023-05-21T09:48:19.901Z,951.3812
2023-05-21T09:49:20.988Z,951.3824
2023-05-21T09:50:23.247Z,951.3846
2023-05-21T09:51:23.463Z,951.3913
2023-05-21T09:52:23.589Z,951.4035
2023-05-21T09:53:25.225Z,951.3871
2023-05-21T09:54:26.625Z,951.3850
2023-05-21T09:55:28.325Z,951.3875
2023-05-21T09:56:29.639Z,951.3788
2023-05-21T09:57:29.670Z,951.3752
2023-05-21T09:58:31.549Z,951.3745
2023-05-21T09:59:33.472Z,951.3846
2023-05-21T10:00:34.155Z,951.4046
2023-05-21T10:01:35.647Z,951.3820
2023-05-21T10:02:38.153Z,951.3935
2023-05-21T10:03:39.989Z,951.4008
2023-05-21T10:04:41.321Z,951.4184
2023-05-21T10:05:42.406Z,951.4319
2023-05-21T10:06:44.324Z,951.4354
2023-05-21T10:07:46.403Z,951.4269
2023-05-21T10:10:49.211Z,951.4337
2023-05-21T10:11:49.474Z,951.4377
2023-05-21T10:13:50.986Z,951.4404
2023-05-21T10:15:51.888Z,951.4221
2023-05-21T10:16:53.942Z,951.4116
2023-05-21T10:17:55.533Z,951.3834
2023-05-21T10:18:56.707Z,951.3775
2023-05-21T10:19:58.133Z,951.3683
2023-05-21T10:20:58.385Z,951.3644
2023-05-21T10:21:59.339Z,951.3564
2023-05-21T10:23:00.606Z,951.3508
2023-05-21T10:24:01.194Z,951.3368
2023-05-21T10:25:01.782Z,951.3273
2023-05-21T10:26:04.019Z,951.3170
2023-05-21T10:27:04.097Z,951.3204
2023-05-21T10:28:07.166Z,951.3339
2023-05-21T10:30:11.827Z,951.3154
2023-05-21T10:35:12.376Z,951.2627
2023-05-21T10:36:13.922Z,951.2427
2023-05-21T10:38:15.252Z,951.2462
2023-05-21T10:41:29.918Z,951.2192
2023-05-21T10:49:33.106Z,951.2272
2023-05-21T10:50:33.712Z,951.2178
2023-05-21T10:51:35.075Z,951.1992
2023-05-21T10:52:37.245Z,951.1738
2023-05-21T10:53:37.935Z,951.1653
2023-05-21T10:54:38.541Z,951.1496
2023-05-21T10:55:38.958Z,951.1548
2023-05-21T10:56:39.644Z,951.1684
2023-05-21T10:57:41.911Z,951.1728
2023-05-21T11:00:43.730Z,951.2268
2023-05-21T11:01:45.858Z,951.2379
2023-05-21T11:02:46.759Z,951.2400
2023-05-21T11:04:48.082Z,951.2139
2023-05-21T11:05:48.920Z,951.2161
2023-05-21T11:06:49.762Z,951.2134
2023-05-21T11:07:51.207Z,951.2069
2023-05-21T11:08:53.788Z,951.1948
2023-05-21T11:09:53.015Z,951.1878
2023-05-21T11:10:53.262Z,951.1927
2023-05-21T11:16:59.715Z,951.2142
2023-05-21T11:18:01.775Z,951.1888
2023-05-21T11:19:03.855Z,951.1970
2023-05-21T11:21:04.567Z,951.1896
2023-05-21T11:22:07.235Z,951.1497
2023-05-21T11:23:07.745Z,951.1304
2023-05-21T11:24:08.040Z,951.1300
2023-05-21T11:25:10.003Z,951.1208
2023-05-21T11:26:12.105Z,951.1304
2023-05-21T11:28:14.107Z,951.0942
2023-05-21T11:29:15.031Z,951.0966
2023-05-21T11:30:16.170Z,951.0934
2023-05-21T11:31:17.829Z,951.0992
2023-05-21T11:32:19.085Z,951.0992
2023-05-21T11:33:20.299Z,951.1032
2023-05-21T11:34:22.747Z,951.0964
2023-05-21T11:35:22.835Z,951.0521
2023-05-21T11:36:24.071Z,951.0139
2023-05-21T11:37:27.543Z,951.0204
2023-05-21T11:39:27.681Z,950.9985
2023-05-21T11:47:36.728Z,950.9119
2023-05-21T11:49:37.223Z,950.8588
2023-05-21T11:50:38.304Z,950.8450
2023-05-21T11:51:38.369Z,950.8422
2023-05-21T11:52:39.797Z,950.8492
2023-05-21T11:53:44.028Z,950.8568
2023-05-21T11:54:41.995Z,950.8425
2023-05-21T11:56:45.846Z,950.8619
2023-05-21T11:57:47.293Z,950.8748
2023-05-21T11:58:48.111Z,950.8715
2023-05-21T11:59:49.985Z,950.8785
2023-05-21T12:00:52.635Z,950.8896
2023-05-21T12:01:54.134Z,950.9119
2023-05-21T12:02:54.895Z,950.9285
2023-05-21T12:03:56.858Z,950.9416
2023-05-21T12:04:59.150Z,950.9336
2023-05-21T12:06:00.456Z,950.9346
2023-05-21T12:07:01.738Z,950.9264
2023-05-21T12:08:02.126Z,950.9208
2023-05-21T12:09:03.186Z,950.9161
2023-05-21T12:10:04.171Z,950.9273
2023-05-21T12:11:04.858Z,950.9421
2023-05-21T12:15:06.501Z,950.8828
2023-05-21T12:16:07.323Z,950.9054
2023-05-21T12:18:07.451Z,950.8835
2023-05-21T12:19:07.633Z,950.9169
2023-05-21T12:20:08.326Z,950.9069
2023-05-21T12:22:11.408Z,950.8885
2023-05-21T12:23:13.438Z,950.8950
2023-05-21T12:24:14.152Z,950.8823
2023-05-21T12:25:15.257Z,950.8492
2023-05-21T12:26:18.178Z,950.8560
2023-05-21T12:27:19.986Z,950.8630
2023-05-21T12:33:25.323Z,950.8459
2023-05-21T12:34:28.036Z,950.8477
2023-05-21T12:37:31.006Z,950.8400
2023-05-21T12:39:31.442Z,950.8236
2023-05-21T12:40:32.965Z,950.8216
2023-05-21T12:41:34.338Z,950.8213
2023-05-21T12:42:34.826Z,950.8046
2023-05-21T12:43:36.268Z,950.8154
2023-05-21T12:44:38.672Z,950.8015
2023-05-21T12:45:41.312Z,950.8146
2023-05-21T12:46:41.456Z,950.7861
2023-05-21T12:53:50.399Z,950.7709
2023-05-21T12:54:51.718Z,950.7615
2023-05-21T12:55:53.638Z,950.7607
2023-05-21T12:56:56.234Z,950.7870
2023-05-21T12:57:56.972Z,950.7808
2023-05-21T12:59:57.670Z,950.7808
2023-05-21T13:00:59.434Z,950.7919
2023-05-21T13:01:59.631Z,950.7900
2023-05-21T13:03:59.608Z,950.7972
2023-05-21T13:04:59.908Z,950.8212
2023-05-21T13:06:01.987Z,950.8346
2023-05-21T13:07:04.824Z,950.8476
2023-05-21T13:08:04.769Z,950.8483
2023-05-21T13:09:06.382Z,950.8500
2023-05-21T13:10:07.946Z,950.8680
2023-05-21T13:11:10.676Z,950.8640
2023-05-21T13:12:12.726Z,950.8580
2023-05-21T13:14:14.275Z,950.8474
2023-05-21T13:20:19.178Z,950.8254
2023-05-21T13:21:21.089Z,950.8152
2023-05-21T13:22:22.024Z,950.7904
2023-05-21T13:23:24.881Z,950.7908
2023-05-21T13:28:28.155Z,950.7927
2023-05-21T13:29:30.051Z,950.7870
2023-05-21T13:30:30.944Z,950.7755
2023-05-21T13:31:32.742Z,950.7808
2023-05-21T13:32:33.204Z,950.7920
2023-05-21T13:33:35.151Z,950.8044
2023-05-21T13:34:36.150Z,950.7973
2023-05-21T13:35:36.214Z,950.7931
2023-05-21T13:36:37.081Z,950.8044
2023-05-21T13:37:37.064Z,950.7896
2023-05-21T13:38:38.549Z,950.7923
2023-05-21T13:39:39.766Z,950.8036
2023-05-21T13:40:40.365Z,950.8141
2023-05-21T13:41:41.054Z,950.8315
2023-05-21T13:42:41.143Z,950.8270
2023-05-21T13:43:43.686Z,950.8339
2023-05-21T13:44:44.478Z,950.8171
2023-05-21T13:51:51.492Z,950.8208
2023-05-21T13:52:53.676Z,950.8325
2023-05-21T13:53:55.602Z,950.8239
2023-05-21T13:54:55.013Z,950.8448
2023-05-21T13:56:55.412Z,950.8258
2023-05-21T13:57:56.058Z,950.8172
2023-05-21T13:58:56.588Z,950.8231
2023-05-21T13:59:57.246Z,950.8204
2023-05-21T14:01:59.854Z,950.8289
2023-05-21T14:03:01.594Z,950.8346
2023-05-21T14:04:02.243Z,950.8328
2023-05-21T14:05:05.218Z,950.8284
2023-05-21T14:06:06.327Z,950.8080
2023-05-21T14:07:07.600Z,950.7915
2023-05-21T14:09:10.876Z,950.7725
2023-05-21T14:10:12.544Z,950.7792
2023-05-21T14:11:12.852Z,950.7769
2023-05-21T14:12:14.869Z,950.7846
2023-05-21T14:13:19.970Z,950.7785
2023-05-21T14:14:17.532Z,950.7767
2023-05-21T14:15:18.379Z,950.7672
2023-05-21T14:16:20.289Z,950.7780
2023-05-21T14:17:22.433Z,950.7748
2023-05-21T14:18:23.842Z,950.7704
2023-05-21T14:19:24.873Z,950.7642
2023-05-21T14:20:24.889Z,950.7704
2023-05-21T14:21:26.389Z,950.7523
2023-05-21T14:22:26.641Z,950.7650
2023-05-21T14:24:34.361Z,950.7924
2023-05-21T14:29:33.162Z,950.7296
2023-05-21T14:30:33.921Z,950.7173
2023-05-21T14:31:36.092Z,950.7080
2023-05-21T14:32:36.693Z,950.7036
2023-05-21T14:33:37.706Z,950.6956
2023-05-21T14:36:41.983Z,950.6908
2023-05-21T14:37:42.604Z,950.6888
2023-05-21T14:38:43.844Z,950.6921
2023-05-21T14:40:44.101Z,950.6715
2023-05-21T14:41:46.106Z,950.6578
2023-05-21T14:42:48.212Z,950.6608
2023-05-21T14:43:48.786Z,950.6365
2023-05-21T14:44:49.304Z,950.6354
2023-05-21T14:45:50.683Z,950.6339
2023-05-21T14:46:50.703Z,950.6450
2023-05-21T14:47:52.088Z,950.6200
2023-05-21T14:48:53.881Z,950.6169
2023-05-21T14:49:54.844Z,950.6227
2023-05-21T14:50:56.292Z,950.6254
2023-05-21T14:51:58.223Z,950.6092
2023-05-21T14:52:58.546Z,950.6080
2023-05-21T14:53:59.084Z,950.6285
2023-05-21T14:55:01.129Z,950.6429
2023-05-21T14:56:01.144Z,950.6312
2023-05-21T14:57:01.416Z,950.6273
2023-05-21T14:58:03.507Z,950.6244
2023-05-21T14:59:04.958Z,950.6165
2023-05-21T15:00:05.535Z,950.6085
2023-05-21T15:01:06.407Z,950.6072
2023-05-21T15:02:07.193Z,950.6124
2023-05-21T15:03:07.728Z,950.6352
2023-05-21T15:04:08.336Z,950.6431
2023-05-21T15:05:09.552Z,950.6442
2023-05-21T15:07:10.864Z,950.6752
2023-05-21T15:08:12.244Z,950.6879
2023-05-21T15:09:12.991Z,950.7004
2023-05-21T15:10:16.598Z,950.6985
2023-05-21T15:11:16.900Z,950.7068
2023-05-21T15:12:18.317Z,950.7200
2023-05-21T15:14:20.312Z,950.7142
2023-05-21T15:15:20.936Z,950.7150
2023-05-21T15:16:22.220Z,950.7213
2023-05-21T15:18:25.734Z,950.7280
2023-05-21T15:19:26.252Z,950.7242
2023-05-21T15:20:27.090Z,950.7265
2023-05-21T15:21:29.107Z,950.7335
2023-05-21T15:22:30.497Z,950.7261
2023-05-21T15:24:32.649Z,950.7275
2023-05-21T15:25:33.867Z,950.7316
2023-05-21T15:26:34.694Z,950.7241
2023-05-21T15:27:35.573Z,950.7273
2023-05-21T15:28:37.500Z,950.7234
2023-05-21T15:29:38.171Z,950.7396
2023-05-21T15:30:38.886Z,950.7388
2023-05-21T15:31:39.429Z,950.7388
2023-05-21T15:33:40.622Z,950.7450
2023-05-21T15:34:40.662Z,950.7487
2023-05-21T15:35:43.661Z,950.7617
2023-05-21T15:37:44.808Z,950.7764
2023-05-21T15:38:45.262Z,950.7724
2023-05-21T15:40:47.909Z,950.7587
2023-05-21T15:41:49.017Z,950.7342
2023-05-21T15:42:49.641Z,950.7273
2023-05-21T15:43:51.318Z,950.7216
2023-05-21T15:44:52.238Z,950.6879
2023-05-21T15:45:53.266Z,950.7024
2023-05-21T15:46:53.084Z,950.7056
2023-05-21T15:47:54.240Z,950.7000
2023-05-21T15:48:55.948Z,950.7184
2023-05-21T15:49:58.132Z,950.7183
2023-05-21T15:50:58.632Z,950.7225
2023-05-21T15:51:59.981Z,950.7035
2023-05-21T15:53:01.720Z,950.7035
2023-05-21T15:57:34.196Z,950.7169
2023-05-21T15:58:39.025Z,950.7104
2023-05-21T16:07:44.528Z,950.6484
2023-05-21T16:08:45.977Z,950.6427
2023-05-21T16:09:48.290Z,950.6435
2023-05-21T16:10:50.265Z,950.6370
2023-05-21T16:11:52.180Z,950.6358
2023-05-21T16:12:52.363Z,950.6356
2023-05-21T16:13:54.178Z,950.6342
2023-05-21T16:18:30.409Z,950.6064
2023-05-21T16:19:32.836Z,950.6315
2023-05-21T16:21:34.212Z,950.6393
2023-05-21T16:22:34.794Z,950.6423
2023-05-21T16:23:36.510Z,950.6268
2023-05-21T16:24:37.947Z,950.6270
2023-05-21T16:25:39.996Z,950.6285
2023-05-21T16:26:41.814Z,950.6180
2023-05-21T16:28:44.506Z,950.6273
2023-05-21T16:29:46.394Z,950.6180
2023-05-21T16:30:45.976Z,950.6204
2023-05-21T16:31:47.549Z,950.6304
2023-05-21T16:32:48.790Z,950.6312
2023-05-21T16:33:49.688Z,950.6273
2023-05-21T16:34:51.241Z,950.6300
2023-05-21T16:35:54.156Z,950.6400
2023-05-21T16:36:57.166Z,950.6658
2023-05-21T16:38:58.103Z,950.6596
2023-05-21T16:39:59.634Z,950.6746
2023-05-21T16:40:59.644Z,950.6611